createdAt,value
2023-04-23T00:37:39.375Z,11.15
2023-04-23T00:40:42.102Z,11.48
2023-04-23T00:43:45.888Z,10.75
2023-04-23T00:46:48.894Z,11.10
2023-04-23T00:49:53.192Z,11.43
2023-04-23T00:52:55.829Z,10.15
2023-04-23T00:55:58.819Z,11.07
2023-04-23T00:59:03.387Z,11.07
2023-04-23T01:02:05.911Z,11.82
2023-04-23T01:05:10.644Z,10.87
2023-04-23T01:08:16.559Z,11.55
2023-04-23T01:11:19.716Z,10.45
2023-04-23T01:14:22.085Z,11.18
2023-04-23T01:17:26.854Z,11.30
2023-04-23T01:20:29.251Z,10.67
2023-04-23T01:23:32.805Z,11.65
2023-04-23T01:26:35.535Z,11.07
2023-04-23T01:29:39.411Z,11.48
2023-04-23T01:32:42.444Z,11.82
2023-04-23T01:35:45.629Z,10.70
2023-04-23T01:38:48.086Z,11.70
2023-04-23T01:41:51.112Z,11.02
2023-04-23T01:44:53.611Z,11.00
2023-04-23T01:47:56.478Z,11.38
2023-04-23T01:50:59.756Z,11.30
2023-04-23T01:54:02.362Z,10.77
2023-04-23T01:57:04.880Z,10.82
2023-04-23T02:00:11.407Z,10.70
2023-04-23T02:03:14.111Z,10.27
2023-04-23T02:06:17.795Z,11.43
2023-04-23T02:09:20.329Z,11.93
2023-04-23T02:12:22.983Z,11.02
2023-04-23T02:15:25.659Z,10.63
2023-04-23T02:18:28.881Z,11.32
2023-04-23T02:21:31.662Z,11.20
2023-04-23T02:24:34.085Z,10.60
2023-04-23T02:27:37.025Z,10.73
2023-04-23T02:30:45.279Z,10.68
2023-04-23T02:33:48.137Z,10.18
2023-04-23T02:36:51.115Z,11.13
2023-04-23T02:39:54.107Z,11.12
2023-04-23T02:42:56.407Z,11.43
2023-04-23T02:45:59.083Z,10.65
2023-04-23T02:49:01.456Z,10.85
2023-04-23T02:52:04.319Z,11.00
2023-04-23T02:55:07.426Z,10.73
2023-04-23T02:58:10.346Z,10.88
2023-04-23T03:01:13.512Z,10.43
2023-04-23T03:04:16.643Z,10.07
2023-04-23T03:07:19.047Z,9.93
2023-04-23T03:10:21.844Z,10.38
2023-04-23T03:13:25.174Z,10.55
2023-04-23T03:16:29.126Z,10.88
2023-04-23T03:19:31.570Z,11.02
2023-04-23T03:22:34.663Z,10.77
2023-04-23T03:25:37.268Z,10.65
2023-04-23T03:28:39.976Z,10.80
2023-04-23T03:31:42.365Z,10.05
2023-04-23T03:34:45.358Z,10.95
2023-04-23T03:37:47.753Z,11.23
2023-04-23T03:40:51.298Z,11.30
2023-04-23T03:43:53.849Z,10.88
2023-04-23T03:46:56.721Z,9.93
2023-04-23T03:49:59.175Z,10.02
2023-04-23T03:53:02.109Z,10.07
2023-04-23T03:56:06.144Z,11.15
2023-04-23T03:59:10.940Z,10.50
2023-04-23T04:02:13.439Z,11.05
2023-04-23T04:05:16.906Z,9.85
2023-04-23T04:08:20.909Z,11.97
2023-04-23T04:11:23.533Z,10.85
2023-04-23T04:14:26.079Z,10.77
2023-04-23T04:17:28.734Z,11.07
2023-04-23T04:20:31.161Z,11.07
2023-04-23T04:23:35.007Z,11.10
2023-04-23T04:26:37.484Z,10.57
2023-04-23T04:29:40.950Z,10.98
2023-04-23T04:32:45.677Z,10.50
2023-04-23T04:35:49.679Z,11.43
2023-04-23T04:38:51.953Z,11.73
2023-04-23T04:41:54.587Z,10.75
2023-04-23T04:44:59.616Z,11.40
2023-04-23T04:48:02.317Z,11.10
2023-04-23T04:51:04.803Z,11.05
2023-04-23T04:54:08.153Z,10.40
2023-04-23T04:57:10.990Z,10.45
2023-04-23T05:00:24.768Z,10.88
2023-04-23T05:03:27.450Z,11.45
2023-04-23T05:06:31.203Z,11.93
2023-04-23T05:09:33.786Z,11.20
2023-04-23T05:12:37.241Z,10.38
2023-04-23T05:15:39.582Z,11.40
2023-04-23T05:18:42.407Z,11.20
2023-04-23T05:21:44.840Z,11.73
2023-04-23T05:24:47.481Z,12.00
2023-04-23T05:27:49.904Z,11.27
2023-04-23T05:30:52.651Z,11.57
2023-04-23T05:33:54.948Z,12.02
2023-04-23T05:36:57.577Z,11.35
2023-04-23T05:40:00.123Z,11.67
2023-04-23T05:43:02.911Z,11.60
2023-04-23T05:46:07.300Z,11.65
2023-04-23T05:49:10.349Z,12.37
2023-04-23T05:52:13.026Z,11.38
2023-04-23T05:55:20.541Z,12.20
2023-04-23T05:58:23.594Z,11.48
2023-04-23T06:01:26.292Z,11.20
2023-04-23T06:04:29.125Z,12.00
2023-04-23T06:07:32.546Z,12.37
2023-04-23T06:10:35.205Z,13.13
2023-04-23T06:13:42.839Z,11.80
2023-04-23T06:16:46.580Z,13.93
2023-04-23T06:19:49.085Z,13.23
2023-04-23T06:22:51.697Z,12.13
2023-04-23T06:25:54.076Z,12.27
2023-04-23T06:28:56.741Z,12.40
2023-04-23T06:32:03.567Z,12.48
2023-04-23T06:35:07.568Z,13.27
2023-04-23T06:38:10.633Z,12.82
2023-04-23T06:41:13.346Z,13.83
2023-04-23T06:44:15.988Z,12.98
2023-04-23T06:47:20.234Z,14.70
2023-04-23T06:50:22.671Z,12.60
2023-04-23T06:53:25.290Z,12.25
2023-04-23T06:56:27.596Z,13.07
2023-04-23T06:59:30.283Z,12.98
2023-04-23T07:02:32.980Z,12.77
2023-04-23T07:05:36.102Z,13.80
2023-04-23T07:08:39.759Z,13.32
2023-04-23T07:11:42.451Z,12.50
2023-04-23T07:14:44.898Z,12.50
2023-04-23T07:17:47.574Z,14.13
2023-04-23T07:20:49.950Z,13.45
2023-04-23T07:23:52.733Z,14.20
2023-04-23T07:26:55.629Z,13.67
2023-04-23T07:29:58.375Z,13.60
2023-04-23T07:33:01.061Z,13.77
2023-04-23T07:36:04.168Z,10.18
2023-04-23T07:39:06.836Z,8.60
2023-04-23T07:42:09.595Z,7.70
2023-04-23T07:45:12.273Z,7.40
2023-04-23T07:48:15.849Z,6.72
2023-04-23T07:51:18.279Z,7.55
2023-04-23T07:54:20.989Z,7.55
2023-04-23T07:57:23.473Z,6.83
2023-04-23T08:00:26.113Z,6.20
2023-04-23T08:03:29.347Z,6.65
2023-04-23T08:06:35.111Z,5.57
2023-04-23T08:09:37.738Z,6.80
2023-04-23T08:12:40.159Z,6.60
2023-04-23T08:15:42.856Z,6.35
2023-04-23T08:18:54.498Z,6.35
2023-04-23T08:22:07.178Z,6.87
2023-04-23T08:25:10.145Z,6.53
2023-04-23T08:28:12.779Z,7.33
2023-04-23T08:31:25.560Z,6.80
2023-04-23T08:34:29.430Z,6.60
2023-04-23T08:37:31.869Z,6.60
2023-04-23T08:40:37.759Z,5.93
2023-04-23T08:44:04.415Z,5.30
2023-04-23T08:47:09.229Z,5.57
2023-04-23T08:50:13.236Z,5.60
2023-04-23T08:53:20.000Z,5.53
2023-04-23T08:56:24.300Z,6.43
2023-04-23T08:59:30.745Z,5.73
2023-04-23T09:02:35.092Z,6.15
2023-04-23T09:05:38.029Z,6.37
2023-04-23T09:08:40.666Z,6.35
2023-04-23T09:11:43.481Z,5.75
2023-04-23T09:14:45.989Z,5.73
2023-04-23T09:17:50.003Z,6.37
2023-04-23T09:20:53.686Z,5.50
2023-04-23T09:23:56.404Z,5.47
2023-04-23T09:26:59.087Z,5.50
2023-04-23T09:30:05.014Z,5.87
2023-04-23T09:33:07.554Z,6.00
2023-04-23T09:36:13.908Z,6.12
2023-04-23T09:39:25.974Z,6.28
2023-04-23T09:42:28.871Z,5.80
2023-04-23T09:45:32.817Z,5.80
2023-04-23T09:48:43.088Z,5.60
2023-04-23T09:51:47.945Z,6.05
2023-04-23T09:54:50.887Z,5.80
2023-04-23T09:57:53.455Z,5.62
2023-04-23T10:01:07.619Z,5.70
2023-04-23T10:04:12.853Z,6.03
2023-04-23T10:07:20.055Z,5.37
2023-04-23T10:10:23.532Z,5.03
2023-04-23T10:13:26.888Z,5.28
2023-04-23T10:16:38.569Z,4.80
2023-04-23T10:19:50.071Z,4.93
2023-04-23T10:22:54.817Z,6.43
2023-04-23T10:25:59.201Z,5.43
2023-04-23T10:29:04.286Z,4.90
2023-04-23T10:32:07.263Z,5.43
2023-04-23T10:35:10.706Z,5.12
2023-04-23T10:38:14.181Z,5.03
2023-04-23T10:41:20.719Z,4.50
2023-04-23T10:44:42.248Z,4.30
2023-04-23T10:47:46.477Z,4.63
2023-04-23T10:51:09.803Z,5.05
2023-04-23T10:54:21.454Z,4.75
2023-04-23T10:57:24.108Z,4.80
2023-04-23T11:00:28.178Z,5.68
2023-04-23T11:03:43.955Z,4.00
2023-04-23T11:06:51.226Z,4.28
2023-04-23T11:09:54.205Z,4.90
2023-04-23T11:12:56.813Z,4.80
2023-04-23T11:16:21.929Z,4.30
2023-04-23T11:19:24.712Z,4.30
2023-04-23T11:22:35.787Z,4.18
2023-04-23T11:25:42.210Z,5.18
2023-04-23T11:28:45.162Z,4.35
2023-04-23T11:32:01.754Z,4.62
2023-04-23T11:35:07.662Z,4.50
2023-04-23T11:38:11.202Z,4.12
2023-04-23T11:41:13.930Z,4.57
2023-04-23T11:44:16.661Z,4.12
2023-04-23T11:47:19.272Z,4.10
2023-04-23T11:50:33.692Z,4.07
2023-04-23T11:53:36.478Z,4.32
2023-04-23T11:56:40.050Z,4.10
2023-04-23T11:59:42.714Z,4.40
2023-04-23T12:03:00.003Z,7.57
2023-04-23T12:06:03.066Z,5.20
2023-04-23T12:09:05.974Z,4.47
2023-04-23T12:12:08.716Z,5.00
2023-04-23T12:15:11.501Z,4.70
2023-04-23T12:18:14.219Z,4.68
2023-04-23T12:21:18.879Z,4.33
2023-04-23T12:24:26.185Z,4.75
2023-04-23T12:27:30.873Z,4.78
2023-04-23T12:30:42.281Z,4.82
2023-04-23T12:33:44.681Z,4.70
2023-04-23T12:36:55.366Z,4.63
2023-04-23T12:39:59.642Z,4.65
2023-04-23T12:43:02.582Z,4.90
2023-04-23T12:46:04.922Z,4.95
2023-04-23T12:49:07.567Z,5.03
2023-04-23T12:52:12.108Z,5.47
2023-04-23T12:55:16.248Z,5.32
2023-04-23T12:58:18.686Z,5.00
2023-04-23T13:01:21.533Z,4.57
2023-04-23T13:04:23.888Z,5.15
2023-04-23T13:07:26.670Z,4.97
2023-04-23T13:10:30.973Z,4.78
2023-04-23T13:13:33.692Z,4.90
2023-04-23T13:16:36.759Z,4.60
2023-04-23T13:19:40.549Z,4.90
2023-04-23T13:22:43.074Z,5.10
2023-04-23T13:25:45.752Z,4.70
2023-04-23T13:28:48.125Z,4.50
2023-04-23T13:31:51.234Z,4.78
2023-04-23T13:34:53.732Z,4.05
2023-04-23T13:37:56.319Z,4.70
2023-04-23T13:40:58.713Z,4.50
2023-04-23T13:44:01.340Z,5.20
2023-04-23T13:47:04.081Z,4.60
2023-04-23T13:50:07.469Z,4.43
2023-04-23T13:53:10.851Z,4.47
2023-04-23T13:56:13.650Z,4.40
2023-04-23T13:59:19.811Z,4.70
2023-04-23T14:02:24.123Z,4.97
2023-04-23T14:05:26.930Z,4.60
2023-04-23T14:08:29.328Z,5.00
2023-04-23T14:11:32.052Z,4.90
2023-04-23T14:14:34.511Z,4.22
2023-04-23T14:17:39.228Z,5.18
2023-04-23T14:20:42.114Z,5.05
2023-04-23T14:23:45.846Z,4.90
2023-04-23T14:26:50.068Z,4.22
2023-04-23T14:29:56.004Z,4.70
2023-04-23T14:32:58.498Z,4.07
2023-04-23T14:36:01.252Z,4.50
2023-04-23T14:39:05.479Z,4.87
2023-04-23T14:42:08.226Z,5.05
2023-04-23T14:45:11.109Z,4.65
2023-04-23T14:48:13.773Z,4.20
2023-04-23T14:51:16.094Z,4.32
2023-04-23T14:54:18.971Z,4.17
2023-04-23T14:57:21.898Z,4.22
2023-04-23T15:00:26.547Z,4.93
2023-04-23T15:03:29.052Z,4.70
2023-04-23T15:06:31.788Z,5.15
2023-04-23T15:09:34.184Z,4.80
2023-04-23T15:12:50.814Z,5.85
2023-04-23T15:16:00.170Z,4.45
2023-04-23T15:19:10.261Z,4.50
2023-04-23T15:22:12.618Z,5.10
2023-04-23T15:25:16.568Z,4.03
2023-04-23T15:28:18.998Z,4.53
2023-04-23T15:31:21.614Z,5.20
2023-04-23T15:34:24.428Z,4.67
2023-04-23T15:37:28.049Z,5.20
2023-04-23T15:40:30.685Z,5.15
2023-04-23T15:43:33.506Z,4.50
2023-04-23T15:46:35.802Z,4.60
2023-04-23T15:49:38.443Z,4.85
2023-04-23T15:52:41.809Z,4.83
2023-04-23T15:55:44.499Z,5.22
2023-04-23T15:58:46.930Z,4.55
2023-04-23T16:01:49.724Z,5.12
2023-04-23T16:04:52.677Z,5.03
2023-04-23T16:07:55.062Z,4.50
2023-04-23T16:10:58.327Z,4.87
2023-04-23T16:14:00.761Z,4.97
2023-04-23T16:17:03.501Z,5.18
2023-04-23T16:20:06.583Z,5.75
2023-04-23T16:23:09.304Z,5.10
2023-04-23T16:26:11.653Z,4.60
2023-04-23T16:29:22.009Z,5.25
2023-04-23T16:32:25.530Z,5.07
2023-04-23T16:35:28.218Z,4.93
2023-04-23T16:38:30.636Z,5.30
2023-04-23T16:41:33.687Z,5.30
2023-04-23T16:44:36.122Z,5.07
2023-04-23T16:47:38.970Z,4.82
2023-04-23T16:50:42.822Z,4.37
2023-04-23T16:53:45.495Z,4.67
2023-04-23T16:56:47.852Z,5.12
2023-04-23T16:59:51.991Z,4.68
2023-04-23T17:02:55.123Z,5.43
2023-04-23T17:06:28.553Z,5.20
2023-04-23T17:09:31.745Z,5.60
2023-04-23T17:12:34.409Z,5.45
2023-04-23T17:15:36.767Z,5.87
2023-04-23T17:18:39.291Z,7.00
2023-04-23T17:21:42.368Z,5.72
2023-04-23T17:24:45.332Z,4.97
2023-04-23T17:27:47.806Z,5.80
2023-04-23T17:30:50.643Z,5.40
2023-04-23T17:33:54.233Z,5.35
2023-04-23T17:36:57.026Z,6.10
2023-04-23T17:39:59.409Z,5.23
2023-04-23T17:43:02.045Z,5.57
2023-04-23T17:46:04.772Z,6.20
2023-04-23T17:49:08.115Z,6.22
2023-04-23T17:52:10.604Z,5.50
2023-04-23T17:55:13.643Z,5.53
2023-04-23T17:58:16.543Z,5.75
2023-04-23T18:01:19.411Z,5.32
2023-04-23T18:04:23.074Z,6.07
2023-04-23T18:07:25.643Z,5.90
2023-04-23T18:10:28.921Z,5.43
2023-04-23T18:13:31.386Z,5.70
2023-04-23T18:16:34.071Z,4.80
2023-04-23T18:19:37.220Z,5.20
2023-04-23T18:22:42.244Z,5.43
2023-04-23T18:25:44.621Z,5.57
2023-04-23T18:28:47.239Z,5.37
2023-04-23T18:31:49.620Z,5.37
2023-04-23T18:34:52.459Z,5.45
2023-04-23T18:38:02.703Z,5.40
2023-04-23T18:41:05.612Z,5.73
2023-04-23T18:44:07.984Z,5.60
2023-04-23T18:47:10.846Z,5.43
2023-04-23T18:50:42.029Z,5.40
2023-04-23T18:53:46.103Z,5.30
2023-04-23T18:56:49.593Z,6.07
2023-04-23T18:59:52.402Z,7.00
2023-04-23T19:02:55.043Z,6.47
2023-04-23T19:05:57.932Z,5.55
2023-04-23T19:09:01.510Z,6.12
2023-04-23T19:12:04.467Z,5.73
2023-04-23T19:15:07.425Z,5.25
2023-04-23T19:18:10.129Z,5.87
2023-04-23T19:21:12.589Z,5.10
2023-04-23T19:24:15.319Z,5.57
2023-04-23T19:27:17.820Z,5.87
2023-04-23T19:30:20.523Z,5.78
2023-04-23T19:33:23.858Z,5.53
2023-04-23T19:36:26.513Z,5.62
2023-04-23T19:39:29.020Z,5.32
2023-04-23T19:42:32.653Z,5.93
2023-04-23T19:45:35.585Z,5.87
2023-04-23T19:48:38.465Z,6.00
2023-04-23T19:51:40.904Z,5.95
2023-04-23T19:54:48.934Z,6.50
2023-04-23T19:57:51.391Z,6.50
2023-04-23T20:00:54.186Z,8.27
2023-04-23T20:03:57.103Z,9.82
2023-04-23T20:06:59.724Z,5.82
2023-04-23T20:10:02.409Z,5.70
2023-04-23T20:13:04.819Z,5.63
2023-04-23T20:16:08.256Z,6.18
2023-04-23T20:19:12.641Z,6.53
2023-04-23T20:22:15.663Z,5.90
2023-04-23T20:25:19.252Z,5.75
2023-04-23T20:28:23.344Z,5.70
2023-04-23T20:31:25.863Z,5.90
2023-04-23T20:34:28.546Z,5.95
2023-04-23T20:37:31.016Z,5.28
2023-04-23T20:40:34.560Z,6.28
2023-04-23T20:43:38.778Z,6.60
2023-04-23T20:46:41.450Z,7.30
2023-04-23T20:49:44.084Z,7.30
2023-04-23T20:52:46.957Z,7.65
2023-04-23T20:55:49.350Z,6.70
2023-04-23T20:58:52.069Z,6.87
2023-04-23T21:01:54.562Z,6.87
2023-04-23T21:04:57.386Z,6.85
2023-04-23T21:07:59.725Z,7.28
2023-04-23T21:11:02.855Z,6.93
2023-04-23T21:14:08.855Z,7.33
2023-04-23T21:17:11.712Z,7.30
2023-04-23T21:20:14.287Z,7.15
2023-04-23T21:23:16.986Z,7.75
2023-04-23T21:26:19.607Z,7.00
2023-04-23T21:29:22.299Z,7.10
2023-04-23T21:32:25.786Z,7.43
2023-04-23T21:35:28.470Z,6.95
2023-04-23T21:38:30.862Z,6.25
2023-04-23T21:41:33.633Z,6.45
2023-04-23T21:44:36.771Z,6.50
2023-04-23T21:47:41.159Z,5.90
2023-04-23T21:50:43.485Z,6.10
2023-04-23T21:53:46.102Z,6.20
2023-04-23T21:56:48.562Z,6.53
2023-04-23T21:59:51.396Z,6.20
2023-04-23T22:02:56.687Z,6.15
2023-04-23T22:06:01.357Z,6.15
2023-04-23T22:09:04.353Z,6.65
2023-04-23T22:12:08.730Z,6.15
2023-04-23T22:15:13.549Z,6.47
2023-04-23T22:18:16.230Z,6.65
2023-04-23T22:21:18.628Z,6.12
2023-04-23T22:24:21.356Z,6.80
2023-04-23T22:27:23.699Z,7.03
2023-04-23T22:30:26.335Z,6.40
2023-04-23T22:33:29.430Z,6.10
2023-04-23T22:36:32.351Z,6.32
2023-04-23T22:39:34.789Z,6.78
2023-04-23T22:42:37.762Z,7.10
2023-04-23T22:45:40.338Z,6.67
2023-04-23T22:48:44.520Z,6.90
2023-04-23T22:51:46.805Z,6.93
2023-04-23T22:54:49.486Z,7.20
2023-04-23T22:57:51.973Z,7.18
2023-04-23T23:00:55.575Z,6.97
2023-04-23T23:03:58.159Z,6.65
2023-04-23T23:07:01.431Z,7.30
2023-04-23T23:10:03.937Z,6.62
2023-04-23T23:13:06.604Z,7.10
2023-04-23T23:16:09.202Z,7.10
2023-04-23T23:19:12.675Z,6.75
2023-04-23T23:22:15.061Z,6.62
2023-04-23T23:25:17.787Z,7.18
2023-04-23T23:28:20.295Z,7.10
2023-04-23T23:31:26.029Z,6.80
2023-04-23T23:34:28.546Z,6.85
2023-04-23T23:37:31.193Z,7.57
2023-04-23T23:40:33.668Z,7.00
2023-04-23T23:43:36.274Z,7.12
2023-04-23T23:46:39.415Z,6.80
2023-04-23T23:49:42.272Z,7.57
2023-04-23T23:52:44.799Z,7.10
2023-04-23T23:55:47.342Z,7.10
2023-04-23T23:58:49.631Z,7.87
